createdAt,value
2023-02-19T00:01:54.522Z,4.45
2023-02-19T00:04:23.731Z,3.30
2023-02-19T00:06:52.003Z,3.03
2023-02-19T00:09:21.618Z,3.28
2023-02-19T00:11:50.222Z,2.88
2023-02-19T00:14:22.164Z,2.40
2023-02-19T00:19:20.370Z,2.58
2023-02-19T00:21:49.052Z,4.43
2023-02-19T00:24:17.364Z,2.72
2023-02-19T00:26:46.558Z,2.75
2023-02-19T00:29:16.532Z,3.28
2023-02-19T00:31:46.845Z,3.05
2023-02-19T00:34:15.412Z,2.28
2023-02-19T00:36:43.954Z,2.85
2023-02-19T00:39:15.983Z,2.63
2023-02-19T00:41:44.638Z,2.75
2023-02-19T00:44:13.752Z,2.80
2023-02-19T00:46:43.608Z,2.42
2023-02-19T00:49:17.321Z,2.58
2023-02-19T00:51:45.544Z,3.47
2023-02-19T00:54:13.851Z,4.05
2023-02-19T00:56:42.202Z,3.63
2023-02-19T00:59:10.571Z,2.70
2023-02-19T01:01:38.987Z,3.42
2023-02-19T01:04:07.419Z,2.38
2023-02-19T01:06:37.268Z,2.72
2023-02-19T01:09:06.323Z,2.80
2023-02-19T01:11:34.599Z,2.88
2023-02-19T01:14:03.557Z,3.00
2023-02-19T01:16:32.143Z,3.88
2023-02-19T01:19:01.166Z,2.78
2023-02-19T01:21:30.771Z,3.47
2023-02-19T01:24:00.681Z,3.83
2023-02-19T01:26:31.117Z,5.13
2023-02-19T01:28:59.423Z,2.90
2023-02-19T01:31:28.030Z,3.85
2023-02-19T01:33:57.770Z,2.90
2023-02-19T01:36:26.429Z,2.78
2023-02-19T01:38:54.776Z,2.92
2023-02-19T01:41:26.026Z,2.45
2023-02-19T01:44:00.402Z,3.58
2023-02-19T01:46:29.635Z,2.08
2023-02-19T01:49:00.597Z,2.97
2023-02-19T01:51:30.680Z,3.35
2023-02-19T01:54:01.387Z,2.40
2023-02-19T01:56:33.290Z,4.68
2023-02-19T01:59:02.266Z,2.47
2023-02-19T02:01:30.519Z,3.60
2023-02-19T02:03:59.211Z,2.50
2023-02-19T02:06:31.806Z,4.22
2023-02-19T02:09:18.005Z,2.50
2023-02-19T02:11:50.724Z,2.45
2023-02-19T02:14:23.299Z,2.33
2023-02-19T02:16:58.654Z,2.83
2023-02-19T02:19:38.697Z,2.90
2023-02-19T02:22:14.846Z,3.42
2023-02-19T02:25:12.455Z,2.72
2023-02-19T02:27:50.076Z,3.00
2023-02-19T02:30:31.137Z,2.72
2023-02-19T02:33:06.938Z,2.20
2023-02-19T02:35:39.772Z,2.10
2023-02-19T02:38:14.186Z,2.17
2023-02-19T02:40:45.271Z,2.08
2023-02-19T02:43:14.034Z,2.40
2023-02-19T02:45:43.726Z,3.20
2023-02-19T02:48:28.016Z,2.10
2023-02-19T02:51:00.189Z,1.98
2023-02-19T02:53:48.913Z,1.60
2023-02-19T02:56:20.708Z,2.38
2023-02-19T02:58:50.681Z,3.58
2023-02-19T03:01:42.321Z,2.38
2023-02-19T03:04:15.172Z,1.58
2023-02-19T03:06:45.498Z,1.80
2023-02-19T03:09:18.647Z,1.92
2023-02-19T03:12:08.778Z,2.92
2023-02-19T03:14:58.163Z,1.77
2023-02-19T03:17:51.622Z,2.10
2023-02-19T03:20:24.826Z,2.35
2023-02-19T03:22:55.824Z,1.38
2023-02-19T03:25:45.533Z,1.70
2023-02-19T03:28:17.624Z,0.90
2023-02-19T03:30:50.567Z,2.42
2023-02-19T03:33:22.646Z,1.42
2023-02-19T03:35:56.130Z,1.10
2023-02-19T03:38:29.266Z,2.13
2023-02-19T03:41:04.495Z,1.33
2023-02-19T03:43:40.075Z,1.45
2023-02-19T03:46:13.505Z,1.55
2023-02-19T03:48:50.908Z,1.17
2023-02-19T03:51:31.958Z,1.40
2023-02-19T03:54:10.012Z,0.90
2023-02-19T03:56:45.082Z,0.80
2023-02-19T03:59:17.790Z,0.98
2023-02-19T04:01:49.600Z,1.13
2023-02-19T04:04:24.030Z,3.13
2023-02-19T04:06:55.783Z,1.20
2023-02-19T04:09:27.586Z,1.40
2023-02-19T04:11:56.655Z,0.93
2023-02-19T04:14:29.403Z,1.23
2023-02-19T04:17:02.073Z,0.82
2023-02-19T04:19:35.143Z,1.48
2023-02-19T04:22:05.680Z,1.70
2023-02-19T04:24:38.934Z,1.23
2023-02-19T04:27:08.178Z,1.50
2023-02-19T04:29:38.291Z,1.55
2023-02-19T04:32:07.668Z,2.20
2023-02-19T04:34:37.254Z,1.38
2023-02-19T04:37:05.620Z,2.13
2023-02-19T04:39:34.008Z,1.45
2023-02-19T04:42:02.296Z,1.17
2023-02-19T04:44:30.479Z,0.77
2023-02-19T04:46:58.694Z,1.23
2023-02-19T04:49:26.837Z,0.80
2023-02-19T04:51:56.365Z,0.93
2023-02-19T04:54:24.749Z,1.10
2023-02-19T04:56:52.885Z,2.25
2023-02-19T04:59:21.045Z,1.42
2023-02-19T05:01:49.230Z,3.40
2023-02-19T05:04:17.533Z,2.53
2023-02-19T05:06:45.704Z,2.45
2023-02-19T05:09:15.253Z,1.08
2023-02-19T05:11:43.759Z,3.17
2023-02-19T05:14:11.939Z,0.50
2023-02-19T05:16:40.098Z,1.00
2023-02-19T05:19:08.256Z,1.65
2023-02-19T05:21:36.447Z,1.55
2023-02-19T05:24:05.134Z,2.53
2023-02-19T05:26:34.734Z,2.05
2023-02-19T05:29:03.122Z,1.30
2023-02-19T05:31:33.684Z,1.60
2023-02-19T05:34:02.093Z,2.03
2023-02-19T05:36:30.314Z,1.98
2023-02-19T05:38:59.077Z,0.57
2023-02-19T05:41:28.874Z,0.90
2023-02-19T05:43:58.881Z,1.08
2023-02-19T05:46:29.322Z,0.90
2023-02-19T05:48:58.239Z,1.85
2023-02-19T05:51:28.244Z,0.88
2023-02-19T05:53:57.817Z,1.13
2023-02-19T05:56:32.019Z,1.60
2023-02-19T05:59:03.880Z,2.30
2023-02-19T06:04:00.239Z,5.95
2023-02-19T06:06:28.802Z,5.50
2023-02-19T06:08:56.972Z,3.05
2023-02-19T06:11:25.713Z,3.83
2023-02-19T06:13:53.879Z,2.53
2023-02-19T06:16:24.087Z,2.38
2023-02-19T06:18:52.402Z,4.13
2023-02-19T06:21:20.657Z,2.58
2023-02-19T06:23:49.011Z,4.13
2023-02-19T06:26:19.422Z,2.78
2023-02-19T06:28:48.622Z,2.95
2023-02-19T06:31:17.610Z,4.22
2023-02-19T06:33:47.406Z,7.55
2023-02-19T06:36:17.764Z,4.97
2023-02-19T06:38:45.935Z,4.03
2023-02-19T06:41:14.993Z,6.43
2023-02-19T06:43:43.455Z,6.25
2023-02-19T06:46:13.368Z,6.78
2023-02-19T06:48:42.743Z,11.57
2023-02-19T06:51:13.614Z,12.90
2023-02-19T06:53:41.874Z,11.45
2023-02-19T06:56:24.618Z,12.95
2023-02-19T06:58:53.393Z,11.05
2023-02-19T07:01:21.782Z,8.32
2023-02-19T07:03:50.957Z,10.85
2023-02-19T07:06:20.701Z,8.10
2023-02-19T07:08:49.096Z,37.70
2023-02-19T07:11:18.698Z,18.88
2023-02-19T07:13:47.198Z,15.00
2023-02-19T07:16:17.947Z,10.75
2023-02-19T07:18:46.169Z,11.57
2023-02-19T07:21:16.004Z,7.60
2023-02-19T07:23:46.238Z,10.98
2023-02-19T07:26:16.141Z,8.80
2023-02-19T07:28:45.141Z,6.97
2023-02-19T07:31:14.418Z,6.18
2023-02-19T07:33:44.623Z,5.82
2023-02-19T07:36:13.644Z,6.88
2023-02-19T07:38:41.825Z,6.53
2023-02-19T07:41:13.808Z,7.60
2023-02-19T07:43:42.135Z,5.43
2023-02-19T07:46:13.051Z,4.53
2023-02-19T07:48:43.304Z,5.80
2023-02-19T07:51:14.354Z,6.75
2023-02-19T07:53:42.582Z,6.43
2023-02-19T07:56:14.211Z,6.80
2023-02-19T07:58:43.132Z,5.82
2023-02-19T08:01:15.216Z,6.85
2023-02-19T08:03:43.663Z,6.43
2023-02-19T08:06:12.584Z,4.65
2023-02-19T08:08:41.165Z,4.13
2023-02-19T08:11:26.997Z,6.22
2023-02-19T08:13:56.576Z,5.35
2023-02-19T08:16:40.866Z,6.32
2023-02-19T08:19:11.143Z,5.10
2023-02-19T08:21:39.358Z,4.40
2023-02-19T08:24:07.765Z,6.60
2023-02-19T08:26:36.297Z,5.28
2023-02-19T08:29:06.218Z,6.72
2023-02-19T08:31:35.701Z,7.38
2023-02-19T08:34:03.905Z,5.95
2023-02-19T08:36:32.196Z,6.35
2023-02-19T08:39:00.394Z,7.03
2023-02-19T08:41:28.641Z,8.32
2023-02-19T08:43:56.816Z,6.10
2023-02-19T08:46:26.425Z,5.95
2023-02-19T08:48:54.621Z,5.60
2023-02-19T08:51:22.792Z,6.07
2023-02-19T08:53:50.961Z,4.93
2023-02-19T08:56:19.235Z,6.65
2023-02-19T08:58:48.137Z,14.68
2023-02-19T09:01:18.389Z,7.95
2023-02-19T09:03:48.153Z,5.60
2023-02-19T09:06:18.636Z,7.57
2023-02-19T09:08:46.857Z,5.38
2023-02-19T09:11:15.309Z,5.80
2023-02-19T09:13:43.713Z,5.03
2023-02-19T09:16:12.557Z,9.23
2023-02-19T09:18:40.810Z,7.40
2023-02-19T09:21:10.742Z,7.95
2023-02-19T09:23:39.202Z,8.20
2023-02-19T09:26:10.161Z,7.28
2023-02-19T09:28:41.637Z,4.97
2023-02-19T09:31:12.212Z,4.57
2023-02-19T09:33:44.454Z,6.30
2023-02-19T09:38:42.817Z,8.05
2023-02-19T09:41:18.084Z,7.32
2023-02-19T09:43:46.652Z,5.63
2023-02-19T09:46:28.948Z,9.80
2023-02-19T09:49:03.474Z,6.22
2023-02-19T09:51:35.787Z,6.88
2023-02-19T09:54:07.522Z,9.05
2023-02-19T09:59:04.456Z,10.05
2023-02-19T10:01:35.612Z,12.85
2023-02-19T10:04:04.887Z,12.88
2023-02-19T10:06:36.345Z,11.70
2023-02-19T10:09:20.177Z,10.65
2023-02-19T10:11:49.890Z,9.00
2023-02-19T10:14:25.646Z,8.55
2023-02-19T10:16:54.602Z,7.30
2023-02-19T10:19:22.749Z,8.23
2023-02-19T10:21:52.295Z,11.27
2023-02-19T10:24:26.081Z,10.77
2023-02-19T10:26:54.466Z,7.05
2023-02-19T10:29:24.855Z,10.18
2023-02-19T10:32:14.772Z,8.52
2023-02-19T10:34:42.968Z,15.18
2023-02-19T10:37:15.904Z,10.15
2023-02-19T10:39:46.818Z,8.68
2023-02-19T10:42:20.100Z,15.35
2023-02-19T10:44:52.600Z,10.18
2023-02-19T10:47:23.928Z,11.85
2023-02-19T10:49:54.257Z,9.63
2023-02-19T10:52:27.664Z,8.05
2023-02-19T10:55:14.400Z,6.90
2023-02-19T10:57:42.570Z,14.05
2023-02-19T11:00:22.924Z,8.85
2023-02-19T11:02:51.109Z,8.35
2023-02-19T11:05:21.166Z,7.55
2023-02-19T11:07:54.668Z,10.07
2023-02-19T11:10:29.082Z,11.65
2023-02-19T11:12:59.583Z,14.60
2023-02-19T11:15:31.253Z,10.32
2023-02-19T11:18:05.089Z,8.13
2023-02-19T11:20:33.920Z,5.93
2023-02-19T11:23:14.694Z,6.82
2023-02-19T11:25:47.213Z,8.05
2023-02-19T11:28:34.505Z,8.30
2023-02-19T11:31:25.525Z,8.00
2023-02-19T11:33:58.223Z,7.25
2023-02-19T11:36:32.630Z,9.32
2023-02-19T11:39:21.762Z,7.13
2023-02-19T11:42:13.292Z,6.40
2023-02-19T11:44:52.153Z,7.10
2023-02-19T11:47:56.037Z,5.75
2023-02-19T11:50:30.485Z,7.50
2023-02-19T11:53:15.623Z,7.63
2023-02-19T11:55:54.775Z,9.95
2023-02-19T11:58:52.203Z,12.10
2023-02-19T12:01:29.538Z,9.13
2023-02-19T12:04:26.982Z,11.82
2023-02-19T12:07:03.199Z,7.47
2023-02-19T12:09:48.964Z,7.47
2023-02-19T12:12:38.750Z,6.65
2023-02-19T12:15:22.856Z,6.43
2023-02-19T12:18:25.095Z,6.40
2023-02-19T12:21:05.575Z,9.23
2023-02-19T12:23:48.718Z,8.48
2023-02-19T12:26:24.884Z,6.43
2023-02-19T12:29:22.067Z,7.50
2023-02-19T12:32:13.409Z,7.05
2023-02-19T12:35:06.313Z,7.37
2023-02-19T12:37:45.960Z,6.15
2023-02-19T12:40:29.079Z,7.05
2023-02-19T12:43:10.722Z,8.45
2023-02-19T12:45:45.129Z,6.07
2023-02-19T12:48:19.857Z,5.00
2023-02-19T12:50:53.229Z,4.95
2023-02-19T12:53:34.102Z,6.15
2023-02-19T12:56:07.050Z,7.05
2023-02-19T12:58:42.695Z,5.55
2023-02-19T13:01:17.799Z,6.72
2023-02-19T13:03:52.408Z,6.97
2023-02-19T13:06:33.170Z,4.75
2023-02-19T13:09:08.124Z,5.85
2023-02-19T13:11:41.234Z,5.85
2023-02-19T13:14:18.380Z,4.65
2023-02-19T13:16:51.941Z,6.15
2023-02-19T13:19:20.117Z,7.25
2023-02-19T13:22:11.926Z,7.53
2023-02-19T13:24:43.982Z,8.85
2023-02-19T13:30:40.800Z,5.70
2023-02-19T13:33:27.087Z,6.07
2023-02-19T13:36:08.160Z,4.93
2023-02-19T13:38:41.429Z,4.38
2023-02-19T13:41:20.542Z,6.38
2023-02-19T13:43:57.263Z,4.60
2023-02-19T13:46:26.425Z,2.92
2023-02-19T13:49:41.446Z,13.68
2023-02-19T13:52:39.447Z,17.25
2023-02-19T13:55:59.467Z,19.60
2023-02-19T13:59:02.420Z,9.45
2023-02-19T14:02:06.687Z,19.73
2023-02-19T14:04:48.478Z,23.05
2023-02-19T14:08:01.202Z,22.90
2023-02-19T14:11:05.108Z,8.70
2023-02-19T14:14:11.859Z,12.10
2023-02-19T14:17:01.278Z,18.73
2023-02-19T14:20:06.256Z,101.63
2023-02-19T14:23:11.681Z,181.05
2023-02-19T14:25:59.352Z,269.48
2023-02-19T14:28:41.711Z,143.50
2023-02-19T14:31:20.602Z,210.70
2023-02-19T14:33:51.640Z,38.17
2023-02-19T14:36:33.626Z,16.03
2023-02-19T14:39:08.039Z,11.88
2023-02-19T14:41:40.487Z,6.45
2023-02-19T14:44:15.055Z,8.05
2023-02-19T14:46:50.196Z,7.40
2023-02-19T14:49:24.517Z,6.57
2023-02-19T14:51:59.352Z,5.60
2023-02-19T14:54:37.765Z,5.68
2023-02-19T14:57:12.653Z,6.97
2023-02-19T14:59:40.806Z,3.67
2023-02-19T15:02:21.149Z,4.50
2023-02-19T15:04:50.095Z,4.00
2023-02-19T15:07:24.556Z,2.80
2023-02-19T15:09:57.072Z,3.65
2023-02-19T15:12:27.611Z,6.00
2023-02-19T15:15:02.078Z,16.48
2023-02-19T15:17:32.433Z,14.30
2023-02-19T15:20:05.818Z,9.40
2023-02-19T15:22:35.628Z,6.72
2023-02-19T15:25:05.137Z,5.50
2023-02-19T15:27:34.398Z,8.98
2023-02-19T15:30:02.722Z,9.07
2023-02-19T15:32:30.943Z,16.48
2023-02-19T15:35:00.940Z,5.65
2023-02-19T15:37:31.946Z,19.77
2023-02-19T15:40:07.707Z,6.87
2023-02-19T15:42:38.127Z,9.52
2023-02-19T15:45:14.511Z,9.30
2023-02-19T15:47:46.871Z,6.10
2023-02-19T15:50:17.736Z,8.73
2023-02-19T15:52:49.785Z,7.72
2023-02-19T15:55:34.803Z,6.95
2023-02-19T15:58:09.732Z,9.80
2023-02-19T16:00:42.737Z,8.38
2023-02-19T16:03:18.898Z,9.82
2023-02-19T16:05:48.074Z,8.75
2023-02-19T16:08:21.766Z,6.28
2023-02-19T16:10:59.519Z,10.55
2023-02-19T16:13:29.518Z,14.18
2023-02-19T16:16:13.141Z,28.35
2023-02-19T16:18:47.239Z,20.08
2023-02-19T16:21:17.942Z,13.65
2023-02-19T16:23:49.493Z,11.50
2023-02-19T16:26:20.220Z,11.15
2023-02-19T16:28:52.857Z,10.45
2023-02-19T16:31:23.780Z,10.75
2023-02-19T16:33:52.438Z,10.40
2023-02-19T16:36:36.937Z,10.50
2023-02-19T16:39:22.495Z,6.35
2023-02-19T16:42:19.718Z,6.60
2023-02-19T16:44:48.834Z,7.68
2023-02-19T16:47:31.972Z,11.43
2023-02-19T16:50:03.342Z,8.18
2023-02-19T16:52:32.040Z,12.60
2023-02-19T16:55:00.203Z,15.07
2023-02-19T16:57:29.743Z,11.50
2023-02-19T16:59:57.913Z,19.40
2023-02-19T17:02:26.459Z,9.38
2023-02-19T17:04:55.849Z,7.40
2023-02-19T17:07:24.559Z,11.25
2023-02-19T17:09:52.721Z,10.23
2023-02-19T17:12:21.289Z,8.13
2023-02-19T17:14:50.873Z,8.05
2023-02-19T17:17:19.093Z,10.07
2023-02-19T17:19:47.214Z,9.05
2023-02-19T17:22:17.402Z,9.13
2023-02-19T17:24:46.497Z,13.68
2023-02-19T17:27:15.172Z,11.75
2023-02-19T17:29:43.396Z,10.90
2023-02-19T17:32:14.427Z,14.43
2023-02-19T17:34:42.679Z,10.43
2023-02-19T17:37:10.859Z,10.88
2023-02-19T17:39:39.073Z,10.35
2023-02-19T17:42:07.694Z,10.77
2023-02-19T17:44:36.090Z,8.13
2023-02-19T17:47:04.304Z,9.52
2023-02-19T17:49:33.866Z,12.85
2023-02-19T17:52:02.028Z,10.35
2023-02-19T17:54:30.178Z,10.63
2023-02-19T17:56:58.339Z,9.65
2023-02-19T17:59:26.482Z,11.18
2023-02-19T18:01:55.138Z,11.00
2023-02-19T18:04:23.427Z,9.93
2023-02-19T18:06:53.962Z,8.45
2023-02-19T18:09:23.059Z,10.30
2023-02-19T18:11:51.238Z,11.80
2023-02-19T18:14:19.429Z,10.93
2023-02-19T18:16:49.973Z,10.82
2023-02-19T18:19:22.831Z,12.55
2023-02-19T18:21:52.407Z,19.42
2023-02-19T18:24:20.578Z,12.18
2023-02-19T18:26:48.760Z,19.05
2023-02-19T18:29:18.516Z,10.95
2023-02-19T18:31:46.799Z,11.43
2023-02-19T18:34:19.360Z,13.40
2023-02-19T18:36:48.158Z,24.60
2023-02-19T18:39:17.785Z,24.05
2023-02-19T18:41:49.221Z,9.48
2023-02-19T18:44:21.020Z,17.02
2023-02-19T18:46:49.635Z,11.40
2023-02-19T18:49:19.119Z,12.20
2023-02-19T18:51:47.512Z,12.32
2023-02-19T18:54:17.045Z,7.50
2023-02-19T18:56:47.416Z,9.27
2023-02-19T18:59:15.603Z,16.25
2023-02-19T19:01:43.851Z,6.93
2023-02-19T19:04:12.131Z,9.00
2023-02-19T19:06:40.397Z,11.63
2023-02-19T19:09:11.550Z,7.95
2023-02-19T19:11:41.394Z,10.23
2023-02-19T19:14:09.937Z,12.48
2023-02-19T19:16:38.130Z,12.93
2023-02-19T19:19:06.260Z,11.00
2023-02-19T19:21:34.396Z,10.40
2023-02-19T19:24:02.723Z,8.90
2023-02-19T19:26:30.930Z,9.85
2023-02-19T19:29:00.463Z,9.55
2023-02-19T19:31:35.755Z,13.07
2023-02-19T19:34:04.177Z,8.75
2023-02-19T19:36:32.346Z,10.38
2023-02-19T19:39:00.524Z,9.43
2023-02-19T19:41:28.747Z,10.35
2023-02-19T19:43:56.933Z,11.68
2023-02-19T19:46:26.500Z,9.52
2023-02-19T19:48:54.681Z,9.35
2023-02-19T19:51:23.007Z,13.85
2023-02-19T19:53:51.516Z,9.13
2023-02-19T19:56:20.516Z,12.27
2023-02-19T19:58:49.585Z,12.93
2023-02-19T20:01:21.141Z,10.82
2023-02-19T20:03:51.867Z,12.88
2023-02-19T20:06:27.295Z,8.93
2023-02-19T20:08:55.860Z,11.57
2023-02-19T20:11:24.012Z,14.90
2023-02-19T20:13:52.309Z,11.43
2023-02-19T20:16:25.679Z,12.25
2023-02-19T20:18:55.338Z,8.18
2023-02-19T20:21:23.508Z,7.32
2023-02-19T20:23:51.706Z,9.07
2023-02-19T20:26:24.502Z,9.20
2023-02-19T20:28:52.707Z,11.10
2023-02-19T20:31:21.243Z,9.43
2023-02-19T20:33:51.074Z,9.60
2023-02-19T20:36:28.349Z,12.05
2023-02-19T20:38:57.153Z,9.85
2023-02-19T20:41:25.301Z,39.67
2023-02-19T20:43:53.491Z,30.10
2023-02-19T20:46:21.697Z,16.42
2023-02-19T20:48:51.817Z,17.98
2023-02-19T20:51:20.207Z,14.35
2023-02-19T20:53:49.821Z,12.35
2023-02-19T20:56:18.028Z,13.20
2023-02-19T20:58:46.160Z,14.07
2023-02-19T21:01:14.326Z,11.52
2023-02-19T21:03:42.522Z,9.70
2023-02-19T21:06:11.005Z,11.40
2023-02-19T21:08:39.312Z,12.63
2023-02-19T21:11:08.886Z,13.38
2023-02-19T21:13:37.062Z,12.05
2023-02-19T21:16:05.585Z,13.07
2023-02-19T21:18:33.761Z,13.00
2023-02-19T21:21:01.904Z,13.38
2023-02-19T21:23:30.063Z,12.65
2023-02-19T21:25:58.249Z,10.55
2023-02-19T21:28:27.768Z,11.82
2023-02-19T21:30:56.094Z,10.70
2023-02-19T21:33:24.279Z,12.30
2023-02-19T21:35:52.475Z,11.80
2023-02-19T21:38:20.624Z,12.25
2023-02-19T21:40:48.800Z,10.35
2023-02-19T21:43:16.955Z,10.98
2023-02-19T21:45:46.563Z,12.40
2023-02-19T21:48:15.140Z,14.95
2023-02-19T21:50:45.625Z,13.73
2023-02-19T21:53:13.895Z,16.25
2023-02-19T21:55:57.520Z,10.70
2023-02-19T21:58:26.328Z,9.90
2023-02-19T22:00:56.424Z,8.75
2023-02-19T22:03:26.500Z,8.73
2023-02-19T22:05:54.711Z,10.15
2023-02-19T22:08:22.856Z,6.70
2023-02-19T22:10:51.015Z,7.53
2023-02-19T22:13:21.903Z,7.05
2023-02-19T22:15:50.120Z,6.53
2023-02-19T22:18:19.645Z,10.13
2023-02-19T22:20:47.773Z,16.58
2023-02-19T22:23:15.937Z,10.98
2023-02-19T22:25:44.145Z,8.38
2023-02-19T22:28:12.386Z,8.02
2023-02-19T22:30:41.020Z,9.10
2023-02-19T22:33:09.275Z,11.30
2023-02-19T22:35:38.836Z,12.48
2023-02-19T22:38:07.028Z,12.27
2023-02-19T22:40:35.233Z,7.13
2023-02-19T22:43:05.783Z,6.32
2023-02-19T22:45:33.981Z,9.27
2023-02-19T22:48:02.156Z,9.50
2023-02-19T22:50:30.598Z,11.13
2023-02-19T22:53:00.161Z,10.00
2023-02-19T22:55:28.296Z,10.70
2023-02-19T22:57:56.497Z,8.82
2023-02-19T23:00:24.757Z,10.73
2023-02-19T23:02:52.890Z,9.35
2023-02-19T23:05:22.621Z,6.65
2023-02-19T23:07:50.855Z,9.00
2023-02-19T23:10:21.062Z,7.22
2023-02-19T23:12:49.209Z,9.85
2023-02-19T23:15:19.838Z,8.55
2023-02-19T23:17:48.022Z,9.13
2023-02-19T23:20:16.404Z,7.97
2023-02-19T23:22:44.728Z,6.50
2023-02-19T23:25:12.985Z,6.45
2023-02-19T23:27:42.543Z,5.63
2023-02-19T23:30:11.362Z,5.78
2023-02-19T23:32:39.548Z,5.72
2023-02-19T23:35:08.220Z,5.28
2023-02-19T23:37:36.362Z,6.15
2023-02-19T23:40:05.046Z,5.88
2023-02-19T23:42:33.191Z,7.97
2023-02-19T23:45:02.831Z,5.15
2023-02-19T23:47:31.025Z,5.82
2023-02-19T23:49:59.216Z,7.38
2023-02-19T23:52:27.397Z,7.68
2023-02-19T23:54:56.958Z,9.00
2023-02-19T23:57:25.161Z,10.32
2023-02-19T23:59:53.315Z,8.23
